Robstown, Texas
Current Conditions -  °F | °C
As of 5:15 PM on Sunday 21 Dec 2014 (Local Time) from KRBO Reporting Station
Overcast Overcast  
Wind Chill: 62°   Ceiling: 1600
Heat Index: 62°   Visibility: 10mi
Dew Point: 56°   Wind: 6mph
Humidity: 82%   Direction: 120°ESE
Pressure: 29.93"   Gusts: NA
Location:  27.79°N, 97.66°W
Report Text: KRBO 212315Z AUTO 12005KT 10SM BKN016 OVC032 17/14 A2993 RMK AO2 T01650135
Loading
Personal Weather Stations






























Interactive Weather Map New forecast layout! Learn more

10-Day Weather Forecast

Advertisements
Track Severe Weather on mobile